Time;durP1;ratioP1;P1;durP2;ratioP2;P2;SDS_P1;SDS_P2;PMS_P1;PMS_P2;Temp;Humidity;BMP_temperature;BMP_pressure;BME280_temperature;BME280_humidity;BME280_pressure;Samples;Min_cycle;Max_cycle;Signal;HPM_P1;HPM_P2
2021/11/25 00:01:25;;;;;;;7.10;5.90;;;;;;;;;;4980508;28;20235;-80
2021/11/25 00:03:51;;;;;;;8.30;5.80;;;;;;;;;;4992206;28;20240;-80
2021/11/25 00:06:17;;;;;;;7.03;6.18;;;;;;;;;;4976553;28;20239;-80
2021/11/25 00:08:43;;;;;;;8.63;5.82;;;;;;;;;;4995005;28;20721;-80
2021/11/25 00:11:09;;;;;;;7.05;6.35;;;;;;;;;;4978922;28;20183;-80
2021/11/25 00:13:35;;;;;;;7.22;6.53;;;;;;;;;;4974483;28;20247;-81
2021/11/25 00:16:02;;;;;;;9.45;6.40;;;;;;;;;;4981742;28;20194;-82
2021/11/25 00:18:28;;;;;;;7.15;6.43;;;;;;;;;;4983563;28;20188;-81
2021/11/25 00:20:54;;;;;;;9.35;6.82;;;;;;;;;;4977891;28;20206;-80
2021/11/25 00:23:21;;;;;;;10.35;7.32;;;;;;;;;;4997720;28;20180;-80
2021/11/25 00:25:47;;;;;;;9.23;7.68;;;;;;;;;;4980948;28;20198;-81
2021/11/25 00:28:13;;;;;;;8.73;7.78;;;;;;;;;;4982169;28;20547;-81
2021/11/25 00:30:39;;;;;;;8.85;6.85;;;;;;;;;;4994794;28;20172;-81
2021/11/25 00:33:05;;;;;;;13.55;8.15;;;;;;;;;;4978563;28;20197;-81
2021/11/25 00:35:31;;;;;;;8.20;6.47;;;;;;;;;;4982448;28;20420;-81
2021/11/25 00:37:57;;;;;;;10.73;7.88;;;;;;;;;;4995464;28;20192;-80
2021/11/25 00:40:23;;;;;;;6.78;6.15;;;;;;;;;;4978660;28;20679;-80
2021/11/25 00:42:49;;;;;;;10.73;7.38;;;;;;;;;;4994825;28;20179;-80
2021/11/25 00:45:16;;;;;;;12.05;8.27;;;;;;;;;;4993916;28;20184;-81
2021/11/25 00:47:42;;;;;;;8.85;7.72;;;;;;;;;;4979196;28;20658;-81
2021/11/25 00:50:09;;;;;;;9.98;8.68;;;;;;;;;;4997348;28;20191;-81
2021/11/25 00:52:35;;;;;;;8.80;7.97;;;;;;;;;;4978038;28;20738;-83
2021/11/25 00:55:01;;;;;;;10.48;7.85;;;;;;;;;;4981451;28;20747;-84
2021/11/25 00:57:27;;;;;;;8.18;7.05;;;;;;;;;;4993373;28;20195;-84
2021/11/25 00:59:53;;;;;;;8.93;7.55;;;;;;;;;;4996081;28;20275;-83
2021/11/25 01:02:20;;;;;;;8.65;7.72;;;;;;;;;;4997418;28;20724;-85
2021/11/25 01:04:46;;;;;;;8.75;7.32;;;;;;;;;;4994041;28;20181;-84
2021/11/25 01:07:12;;;;;;;7.90;7.00;;;;;;;;;;4979024;28;20199;-84
2021/11/25 01:09:39;;;;;;;7.65;6.72;;;;;;;;;;4993247;28;20187;-84
2021/11/25 01:12:05;;;;;;;8.25;7.45;;;;;;;;;;4976455;28;20189;-81
2021/11/25 01:14:33;;;;;;;9.15;7.30;;;;;;;;;;4980574;28;20184;-81
2021/11/25 01:16:59;;;;;;;10.02;7.20;;;;;;;;;;4994987;28;20215;-82
2021/11/25 01:19:25;;;;;;;8.57;6.10;;;;;;;;;;4979916;28;20184;-82
2021/11/25 01:21:51;;;;;;;11.68;7.25;;;;;;;;;;4979818;28;20207;-82
2021/11/25 01:24:17;;;;;;;8.32;7.10;;;;;;;;;;4978058;28;20188;-82
2021/11/25 01:26:43;;;;;;;7.40;6.30;;;;;;;;;;4998639;28;20741;-82
2021/11/25 01:29:10;;;;;;;8.30;6.25;;;;;;;;;;4981279;28;20180;-81
2021/11/25 01:31:36;;;;;;;7.60;6.35;;;;;;;;;;4976851;28;20192;-81
2021/11/25 01:34:02;;;;;;;7.75;6.05;;;;;;;;;;5000901;28;20183;-79
2021/11/25 01:36:29;;;;;;;7.57;5.85;;;;;;;;;;4982152;28;20188;-81
2021/11/25 01:38:55;;;;;;;8.35;5.63;;;;;;;;;;4991519;28;20211;-82
2021/11/25 01:41:21;;;;;;;6.13;5.38;;;;;;;;;;4981355;28;20208;-81
2021/11/25 01:43:47;;;;;;;7.53;5.30;;;;;;;;;;4993408;28;20208;-78
2021/11/25 01:46:15;;;;;;;7.10;5.40;;;;;;;;;;4978075;28;20255;-81
2021/11/25 01:48:42;;;;;;;6.10;5.50;;;;;;;;;;4979041;28;20199;-80
2021/11/25 01:51:08;;;;;;;6.65;5.60;;;;;;;;;;4992323;28;20220;-82
2021/11/25 01:53:35;;;;;;;5.80;4.90;;;;;;;;;;4978714;28;20727;-82
2021/11/25 01:56:01;;;;;;;5.32;4.45;;;;;;;;;;4995036;28;20210;-82
2021/11/25 01:58:27;;;;;;;9.30;5.57;;;;;;;;;;4977378;28;20180;-81
2021/11/25 02:00:54;;;;;;;5.10;4.60;;;;;;;;;;4999198;28;20223;-80
2021/11/25 02:03:21;;;;;;;6.95;5.80;;;;;;;;;;4991729;28;20184;-82
2021/11/25 02:05:47;;;;;;;5.75;5.18;;;;;;;;;;4991772;28;20184;-82
2021/11/25 02:08:13;;;;;;;5.03;4.20;;;;;;;;;;4995757;28;20195;-81
2021/11/25 02:10:41;;;;;;;6.38;4.75;;;;;;;;;;4992268;28;20187;-81
2021/11/25 02:13:07;;;;;;;6.47;4.80;;;;;;;;;;4997017;28;20236;-81
2021/11/25 02:15:37;;;;;;;6.53;5.28;;;;;;;;;;4975987;28;20203;-81
2021/11/25 02:18:05;;;;;;;6.70;6.00;;;;;;;;;;4976071;28;20187;-81
2021/11/25 02:20:32;;;;;;;6.55;5.57;;;;;;;;;;4980904;28;20226;-82
2021/11/25 02:22:59;;;;;;;7.45;6.65;;;;;;;;;;4995325;28;20192;-81
2021/11/25 02:25:25;;;;;;;8.60;6.10;;;;;;;;;;4978539;28;20172;-81
2021/11/25 02:27:51;;;;;;;7.38;6.45;;;;;;;;;;4993240;28;20610;-82
2021/11/25 02:30:17;;;;;;;11.13;7.15;;;;;;;;;;4991641;28;20203;-82
2021/11/25 02:32:45;;;;;;;9.27;6.78;;;;;;;;;;4977147;28;20197;-81
2021/11/25 02:35:13;;;;;;;10.13;7.13;;;;;;;;;;4980985;28;20188;-82
2021/11/25 02:37:39;;;;;;;9.60;6.28;;;;;;;;;;4976048;28;20590;-82
2021/11/25 02:40:16;;;;;;;10.10;7.45;;;;;;;;;;4999701;28;20195;-81
2021/11/25 02:42:43;;;;;;;10.45;7.65;;;;;;;;;;4979157;28;20171;-81
2021/11/25 02:45:09;;;;;;;7.57;6.32;;;;;;;;;;4991261;28;20713;-81
2021/11/25 02:47:35;;;;;;;11.25;7.28;;;;;;;;;;4992293;28;20200;-81
2021/11/25 02:50:01;;;;;;;8.27;6.90;;;;;;;;;;4994073;28;20307;-81
2021/11/25 02:52:27;;;;;;;7.28;6.57;;;;;;;;;;4997829;28;20190;-82
2021/11/25 02:54:53;;;;;;;7.78;6.60;;;;;;;;;;4993686;28;20251;-81
2021/11/25 02:57:19;;;;;;;8.70;6.97;;;;;;;;;;4981318;28;20194;-82
2021/11/25 02:59:45;;;;;;;8.70;6.15;;;;;;;;;;4980161;28;20188;-82
2021/11/25 03:02:11;;;;;;;11.38;7.40;;;;;;;;;;4996183;28;20207;-81
2021/11/25 03:04:37;;;;;;;8.88;7.55;;;;;;;;;;4975024;28;20187;-81
2021/11/25 03:07:03;;;;;;;9.20;7.22;;;;;;;;;;4994087;28;20172;-81
2021/11/25 03:09:29;;;;;;;10.00;7.47;;;;;;;;;;4975233;28;20200;-81
2021/11/25 03:11:55;;;;;;;9.20;7.40;;;;;;;;;;4975607;28;20196;-82
2021/11/25 03:14:22;;;;;;;7.53;6.40;;;;;;;;;;4980178;28;20215;-82
2021/11/25 03:16:48;;;;;;;12.40;7.70;;;;;;;;;;4980832;28;20230;-81
2021/11/25 03:19:14;;;;;;;9.45;8.15;;;;;;;;;;4976948;28;20179;-82
2021/11/25 03:21:40;;;;;;;10.30;7.50;;;;;;;;;;4977877;28;20230;-81
2021/11/25 03:24:06;;;;;;;11.73;7.60;;;;;;;;;;4988772;28;20564;-81
2021/11/25 03:26:32;;;;;;;12.75;7.80;;;;;;;;;;4986028;28;20192;-81
2021/11/25 03:29:00;;;;;;;12.85;7.90;;;;;;;;;;4995887;28;20184;-81
2021/11/25 03:31:28;;;;;;;12.00;8.48;;;;;;;;;;4976812;28;20175;-81
2021/11/25 03:33:54;;;;;;;13.52;8.80;;;;;;;;;;4992411;28;20219;-82
2021/11/25 03:36:20;;;;;;;15.60;8.68;;;;;;;;;;4990181;28;20202;-82
2021/11/25 03:38:46;;;;;;;14.52;9.52;;;;;;;;;;4980872;28;20192;-81
2021/11/25 03:41:13;;;;;;;14.40;10.23;;;;;;;;;;4982288;28;20215;-81
2021/11/25 03:43:39;;;;;;;17.08;10.75;;;;;;;;;;4976747;28;20215;-82
2021/11/25 03:46:05;;;;;;;15.95;10.50;;;;;;;;;;4988249;28;20211;-80
2021/11/25 03:48:32;;;;;;;16.08;10.35;;;;;;;;;;4976281;28;20211;-81
2021/11/25 03:51:02;;;;;;;19.98;10.98;;;;;;;;;;4976221;28;20192;-81
2021/11/25 03:53:28;;;;;;;17.60;11.82;;;;;;;;;;4997209;28;20234;-81
2021/11/25 03:55:55;;;;;;;18.42;11.95;;;;;;;;;;4992679;28;20184;-81
2021/11/25 03:58:21;;;;;;;16.13;11.40;;;;;;;;;;4986900;28;20179;-80
2021/11/25 04:00:47;;;;;;;18.85;13.05;;;;;;;;;;4983687;28;20560;-82
2021/11/25 04:03:13;;;;;;;17.70;12.10;;;;;;;;;;4983980;28;20247;-81
2021/11/25 04:05:39;;;;;;;15.82;11.63;;;;;;;;;;4996215;28;20211;-81
2021/11/25 04:08:06;;;;;;;25.95;13.20;;;;;;;;;;4986281;28;20208;-81
2021/11/25 04:10:32;;;;;;;18.85;12.90;;;;;;;;;;4980220;28;20191;-81
2021/11/25 04:12:58;;;;;;;23.77;13.98;;;;;;;;;;4977295;28;20247;-81
2021/11/25 04:15:24;;;;;;;18.73;12.65;;;;;;;;;;4992914;28;20184;-81
2021/11/25 04:17:50;;;;;;;24.85;14.25;;;;;;;;;;4985443;28;20190;-81
2021/11/25 04:20:16;;;;;;;20.30;13.43;;;;;;;;;;4983652;28;20230;-80
2021/11/25 04:22:43;;;;;;;27.13;13.73;;;;;;;;;;4993785;28;20176;-80
2021/11/25 04:25:09;;;;;;;25.55;14.35;;;;;;;;;;4981249;28;20210;-81
2021/11/25 04:27:35;;;;;;;26.30;14.95;;;;;;;;;;4979039;28;20520;-80
2021/11/25 04:35:30;;;;;;;26.80;14.13;;;;;;;;;;4983132;28;20207;-81
2021/11/25 04:38:06;;;;;;;28.05;15.38;;;;;;;;;;4981227;28;20185;-80
2021/11/25 04:40:37;;;;;;;27.08;15.32;;;;;;;;;;4980591;28;20235;-80
2021/11/25 04:43:04;;;;;;;27.70;15.75;;;;;;;;;;4981753;28;20210;-80
2021/11/25 04:45:30;;;;;;;30.02;16.45;;;;;;;;;;4981273;28;20273;-80
2021/11/25 04:47:56;;;;;;;32.05;17.35;;;;;;;;;;4995272;28;20218;-81
2021/11/25 04:50:22;;;;;;;25.02;15.82;;;;;;;;;;4980938;28;20191;-80
2021/11/25 04:52:49;;;;;;;24.77;14.82;;;;;;;;;;4994389;28;20196;-80
2021/11/25 04:55:16;;;;;;;29.20;17.45;;;;;;;;;;4984797;28;20192;-81
2021/11/25 04:57:42;;;;;;;29.13;16.90;;;;;;;;;;4981718;28;20180;-81
2021/11/25 05:00:08;;;;;;;26.60;16.50;;;;;;;;;;4993065;28;20184;-81
2021/11/25 05:02:34;;;;;;;28.63;16.98;;;;;;;;;;4994333;28;20185;-81
2021/11/25 05:05:01;;;;;;;30.60;17.38;;;;;;;;;;4995764;28;20231;-80
2021/11/25 05:07:27;;;;;;;28.20;17.10;;;;;;;;;;4983132;28;20179;-80
2021/11/25 05:09:53;;;;;;;32.25;19.08;;;;;;;;;;5000534;28;20203;-81
2021/11/25 05:12:19;;;;;;;36.97;18.90;;;;;;;;;;4992709;28;20849;-81
2021/11/25 05:14:45;;;;;;;34.65;18.23;;;;;;;;;;4978756;28;20713;-81
2021/11/25 05:17:11;;;;;;;30.10;16.45;;;;;;;;;;4977076;28;20656;-80
2021/11/25 05:19:37;;;;;;;29.90;16.75;;;;;;;;;;4976975;28;20196;-80
2021/11/25 05:22:03;;;;;;;31.40;18.50;;;;;;;;;;5001413;28;20588;-80
2021/11/25 05:24:29;;;;;;;28.35;17.05;;;;;;;;;;4976555;28;20183;-81
2021/11/25 05:26:55;;;;;;;27.20;16.23;;;;;;;;;;4977377;28;20248;-80
2021/11/25 05:29:22;;;;;;;31.08;18.08;;;;;;;;;;4981706;28;20188;-80
2021/11/25 05:31:49;;;;;;;35.10;16.55;;;;;;;;;;4978908;28;20185;-80
2021/11/25 05:34:16;;;;;;;31.52;17.10;;;;;;;;;;4978256;28;20176;-80
2021/11/25 05:36:43;;;;;;;28.08;16.35;;;;;;;;;;4993831;28;20607;-80
2021/11/25 05:39:09;;;;;;;25.27;14.80;;;;;;;;;;4982876;28;20283;-80
2021/11/25 05:41:35;;;;;;;23.70;15.10;;;;;;;;;;4994873;28;20627;-80
2021/11/25 05:44:03;;;;;;;32.60;16.40;;;;;;;;;;4994767;28;20653;-80
2021/11/25 05:46:29;;;;;;;28.83;16.58;;;;;;;;;;4982093;28;20975;-80
2021/11/25 05:48:55;;;;;;;27.05;15.15;;;;;;;;;;4999827;28;20180;-80
2021/11/25 05:51:21;;;;;;;34.20;16.48;;;;;;;;;;4977516;28;20210;-80
2021/11/25 05:53:47;;;;;;;28.48;15.85;;;;;;;;;;4975991;28;20279;-80
2021/11/25 05:56:14;;;;;;;27.20;15.30;;;;;;;;;;4996537;28;20188;-80
2021/11/25 05:58:40;;;;;;;27.42;16.23;;;;;;;;;;4992204;28;20203;-80
2021/11/25 06:01:06;;;;;;;25.38;15.15;;;;;;;;;;5001000;28;20203;-80
2021/11/25 06:03:32;;;;;;;31.52;16.17;;;;;;;;;;4976927;28;20194;-80
2021/11/25 06:05:58;;;;;;;34.22;16.48;;;;;;;;;;4981393;28;20198;-80
2021/11/25 06:08:24;;;;;;;21.88;15.38;;;;;;;;;;4995388;28;20183;-80
2021/11/25 06:10:50;;;;;;;30.10;15.35;;;;;;;;;;4994180;28;20212;-80
2021/11/25 06:13:16;;;;;;;29.45;17.00;;;;;;;;;;4981038;28;20231;-82
2021/11/25 06:15:42;;;;;;;29.02;15.77;;;;;;;;;;4976479;28;20279;-80
2021/11/25 06:18:08;;;;;;;28.23;16.40;;;;;;;;;;4975200;28;20192;-80
2021/11/25 06:20:34;;;;;;;33.53;16.75;;;;;;;;;;4979123;28;20200;-80
2021/11/25 06:23:00;;;;;;;28.02;15.88;;;;;;;;;;4979645;28;20272;-80
2021/11/25 06:25:26;;;;;;;30.38;16.45;;;;;;;;;;4978108;28;20191;-80
2021/11/25 06:27:53;;;;;;;30.50;15.18;;;;;;;;;;4978027;28;20203;-80
2021/11/25 06:30:19;;;;;;;28.27;14.80;;;;;;;;;;4976424;28;20270;-80
2021/11/25 06:32:46;;;;;;;29.88;16.00;;;;;;;;;;4977379;28;20181;-80
2021/11/25 06:35:15;;;;;;;26.80;15.38;;;;;;;;;;4981405;28;20279;-80
2021/11/25 06:37:44;;;;;;;30.63;15.98;;;;;;;;;;4976838;28;20234;-80
2021/11/25 06:40:11;;;;;;;28.10;15.35;;;;;;;;;;4977951;28;20176;-80
2021/11/25 06:42:37;;;;;;;29.05;14.75;;;;;;;;;;4977933;28;20176;-80
2021/11/25 06:45:03;;;;;;;26.35;14.40;;;;;;;;;;4976742;28;20243;-79
2021/11/25 06:47:29;;;;;;;30.42;15.82;;;;;;;;;;4993049;28;20522;-79
2021/11/25 06:49:55;;;;;;;28.42;15.23;;;;;;;;;;4993694;28;20224;-79
2021/11/25 06:52:21;;;;;;;31.48;15.32;;;;;;;;;;4978422;28;20188;-80
2021/11/25 06:54:47;;;;;;;28.35;16.35;;;;;;;;;;4978425;28;20203;-80
2021/11/25 06:57:13;;;;;;;27.10;13.55;;;;;;;;;;4990398;28;20175;-81
2021/11/25 06:59:40;;;;;;;29.42;15.80;;;;;;;;;;4976479;28;20195;-80
2021/11/25 07:02:06;;;;;;;32.10;15.57;;;;;;;;;;4984707;28;20266;-80
2021/11/25 07:04:32;;;;;;;25.77;15.18;;;;;;;;;;4975599;28;20180;-80
2021/11/25 07:06:59;;;;;;;31.65;15.93;;;;;;;;;;4983216;28;20175;-80
2021/11/25 07:09:25;;;;;;;24.20;15.07;;;;;;;;;;4978970;28;20607;-80
2021/11/25 07:11:51;;;;;;;28.13;14.55;;;;;;;;;;4975362;28;20184;-80
2021/11/25 07:14:17;;;;;;;32.05;15.70;;;;;;;;;;4983580;28;20548;-80
2021/11/25 07:16:43;;;;;;;30.67;16.58;;;;;;;;;;4978522;28;20192;-80
2021/11/25 07:19:09;;;;;;;30.77;15.30;;;;;;;;;;4978250;28;20207;-80
2021/11/25 07:21:35;;;;;;;25.58;15.40;;;;;;;;;;4979988;28;20291;-79
2021/11/25 07:24:01;;;;;;;31.95;17.42;;;;;;;;;;4980597;28;20214;-81
2021/11/25 07:26:27;;;;;;;27.58;16.83;;;;;;;;;;4996294;28;20183;-81
2021/11/25 07:28:56;;;;;;;30.75;16.13;;;;;;;;;;5000183;28;20233;-80
2021/11/25 07:31:27;;;;;;;33.00;17.83;;;;;;;;;;4985044;28;20182;-81
2021/11/25 07:33:53;;;;;;;27.45;16.35;;;;;;;;;;4984556;28;20192;-81
2021/11/25 07:36:19;;;;;;;31.88;16.65;;;;;;;;;;4980929;28;20202;-80
2021/11/25 07:38:45;;;;;;;27.50;16.70;;;;;;;;;;4985479;28;20217;-81
2021/11/25 07:41:11;;;;;;;30.70;16.52;;;;;;;;;;4987562;28;20298;-80
2021/11/25 07:43:37;;;;;;;28.90;17.48;;;;;;;;;;4987082;28;20278;-80
2021/11/25 07:46:03;;;;;;;30.63;17.33;;;;;;;;;;5005214;28;20209;-80
2021/11/25 07:48:29;;;;;;;29.35;17.48;;;;;;;;;;4985388;28;20204;-80
2021/11/25 07:50:55;;;;;;;31.02;16.55;;;;;;;;;;4980983;28;20208;-80
2021/11/25 07:53:21;;;;;;;30.10;18.67;;;;;;;;;;4984788;28;20215;-82
2021/11/25 07:55:47;;;;;;;31.98;17.17;;;;;;;;;;4983215;28;20191;-81
2021/11/25 07:58:13;;;;;;;29.92;17.27;;;;;;;;;;4984473;28;20331;-82
2021/11/25 08:00:40;;;;;;;25.40;16.38;;;;;;;;;;5000470;28;20215;-81
2021/11/25 08:03:06;;;;;;;36.42;18.85;;;;;;;;;;4999493;28;20191;-81
2021/11/25 08:05:31;;;;;;;31.15;16.85;;;;;;;;;;4982434;28;20242;-82
2021/11/25 08:07:58;;;;;;;34.45;18.35;;;;;;;;;;5000752;28;20216;-82
2021/11/25 08:10:25;;;;;;;29.50;18.85;;;;;;;;;;4998861;28;20230;-81
2021/11/25 08:12:54;;;;;;;33.97;19.13;;;;;;;;;;4995513;28;20230;-82
2021/11/25 08:15:21;;;;;;;30.42;19.05;;;;;;;;;;4986374;28;20234;-82
2021/11/25 08:17:47;;;;;;;36.15;19.50;;;;;;;;;;4999548;28;20272;-82
2021/11/25 08:20:13;;;;;;;33.72;18.33;;;;;;;;;;5000358;28;20207;-82
2021/11/25 08:22:40;;;;;;;36.45;20.52;;;;;;;;;;4990695;28;20180;-81
2021/11/25 08:25:08;;;;;;;40.50;19.95;;;;;;;;;;5004749;28;20629;-82
2021/11/25 08:27:34;;;;;;;36.75;22.33;;;;;;;;;;4983784;28;20243;-82
2021/11/25 08:30:00;;;;;;;40.60;22.60;;;;;;;;;;4993298;28;20191;-83
2021/11/25 08:32:26;;;;;;;40.58;23.38;;;;;;;;;;4988066;28;20188;-81
2021/11/25 08:34:52;;;;;;;40.28;20.98;;;;;;;;;;4987240;28;20192;-82
2021/11/25 08:37:18;;;;;;;38.83;21.52;;;;;;;;;;4981669;28;20176;-81
2021/11/25 08:39:44;;;;;;;40.15;20.25;;;;;;;;;;4982038;28;20222;-83
2021/11/25 08:42:10;;;;;;;43.47;21.80;;;;;;;;;;4979619;28;20212;-82
2021/11/25 08:44:37;;;;;;;34.95;20.85;;;;;;;;;;4981040;28;20207;-84
2021/11/25 08:47:04;;;;;;;33.38;21.00;;;;;;;;;;4981767;28;20191;-82
2021/11/25 08:49:30;;;;;;;38.95;21.90;;;;;;;;;;4979243;28;20172;-84
2021/11/25 08:51:56;;;;;;;40.97;22.00;;;;;;;;;;4995461;28;20187;-83
2021/11/25 08:54:23;;;;;;;36.15;21.65;;;;;;;;;;4996113;28;20184;-83
2021/11/25 08:56:50;;;;;;;33.15;20.83;;;;;;;;;;4978377;28;20185;-83
2021/11/25 08:59:16;;;;;;;38.05;19.80;;;;;;;;;;4978573;28;20184;-83
2021/11/25 09:01:42;;;;;;;40.42;22.00;;;;;;;;;;4983201;28;20204;-83
2021/11/25 09:04:08;;;;;;;40.22;22.52;;;;;;;;;;4983223;28;20206;-85
2021/11/25 09:06:35;;;;;;;33.55;19.40;;;;;;;;;;4997105;28;20188;-84
2021/11/25 09:09:01;;;;;;;39.42;22.45;;;;;;;;;;4977325;28;20212;-84
2021/11/25 09:11:27;;;;;;;39.63;21.45;;;;;;;;;;4979608;28;20211;-83
2021/11/25 09:13:53;;;;;;;44.60;23.30;;;;;;;;;;4996851;28;20291;-84
2021/11/25 09:16:19;;;;;;;34.40;21.92;;;;;;;;;;4983703;28;20196;-83
2021/11/25 09:18:45;;;;;;;35.67;20.90;;;;;;;;;;4980691;28;20176;-84
2021/11/25 09:21:11;;;;;;;43.75;21.17;;;;;;;;;;4977930;28;20478;-85
2021/11/25 09:23:38;;;;;;;34.33;21.42;;;;;;;;;;4995725;28;20188;-84
2021/11/25 09:26:04;;;;;;;39.53;21.90;;;;;;;;;;4980811;28;20187;-85
2021/11/25 09:28:30;;;;;;;41.38;21.63;;;;;;;;;;4978192;28;20210;-84
2021/11/25 09:30:56;;;;;;;32.65;20.75;;;;;;;;;;4980423;28;20187;-84
2021/11/25 09:33:23;;;;;;;33.95;20.23;;;;;;;;;;4977958;28;20184;-84
2021/11/25 09:35:49;;;;;;;34.08;19.85;;;;;;;;;;4992927;28;20526;-85
2021/11/25 09:38:16;;;;;;;37.55;20.92;;;;;;;;;;4981971;28;20303;-84
2021/11/25 09:40:43;;;;;;;30.00;19.42;;;;;;;;;;4978004;28;20262;-85
2021/11/25 09:43:11;;;;;;;40.35;21.08;;;;;;;;;;4978327;28;20188;-85
2021/11/25 09:45:37;;;;;;;34.38;22.00;;;;;;;;;;4994309;28;20180;-82
2021/11/25 09:48:08;;;;;;;35.80;20.27;;;;;;;;;;4992174;28;20188;-82
2021/11/25 09:50:37;;;;;;;39.78;20.00;;;;;;;;;;4971021;28;20189;-81
2021/11/25 09:53:07;;;;;;;32.20;19.42;;;;;;;;;;4995081;28;20184;-80
2021/11/25 09:55:33;;;;;;;30.23;19.83;;;;;;;;;;4977417;28;20657;-80
2021/11/25 09:58:00;;;;;;;34.83;20.60;;;;;;;;;;4980328;28;20281;-82
2021/11/25 10:00:32;;;;;;;40.80;21.23;;;;;;;;;;4976609;28;20309;-78
2021/11/25 10:02:58;;;;;;;33.67;19.50;;;;;;;;;;4975655;28;20658;-82
2021/11/25 10:05:24;;;;;;;32.92;19.08;;;;;;;;;;4980830;28;20192;-82
2021/11/25 10:07:50;;;;;;;32.97;22.15;;;;;;;;;;4997239;28;20188;-82
2021/11/25 10:10:34;;;;;;;38.47;21.30;;;;;;;;;;4980823;28;20175;-82
2021/11/25 10:13:11;;;;;;;35.38;20.02;;;;;;;;;;4999815;28;20617;-82
2021/11/25 10:15:38;;;;;;;33.97;20.52;;;;;;;;;;4996745;28;20171;-82
2021/11/25 10:18:22;;;;;;;30.50;18.13;;;;;;;;;;4991491;28;20184;-82
2021/11/25 10:20:50;;;;;;;29.58;18.15;;;;;;;;;;4975634;28;20197;-82
2021/11/25 10:23:23;;;;;;;36.58;21.20;;;;;;;;;;4981355;28;20184;-80
2021/11/25 10:25:50;;;;;;;30.90;19.35;;;;;;;;;;4978004;28;20177;-82
2021/11/25 10:28:19;;;;;;;39.25;21.38;;;;;;;;;;4980074;28;20505;-82
2021/11/25 10:30:45;;;;;;;35.83;19.50;;;;;;;;;;4993716;28;20596;-82
2021/11/25 10:33:11;;;;;;;31.35;19.23;;;;;;;;;;4976624;28;20248;-82
2021/11/25 10:38:37;;;;;;;30.23;18.95;;;;;;;;;;4967785;28;20192;-82
2021/11/25 10:41:13;;;;;;;29.50;19.77;;;;;;;;;;4961176;28;20215;-84
2021/11/25 10:43:39;;;;;;;34.47;21.85;;;;;;;;;;4962922;28;20196;-83
2021/11/25 10:46:06;;;;;;;32.45;19.80;;;;;;;;;;4965486;28;20656;-80
2021/11/25 10:48:35;;;;;;;37.83;21.92;;;;;;;;;;4962493;28;20681;-83
2021/11/25 10:51:21;;;;;;;34.05;21.17;;;;;;;;;;4972255;28;20244;-84
2021/11/25 10:54:06;;;;;;;33.88;21.00;;;;;;;;;;4967722;28;20196;-84
2021/11/25 10:56:50;;;;;;;32.03;20.23;;;;;;;;;;4951701;28;20441;-85
2021/11/25 10:59:17;;;;;;;35.58;21.63;;;;;;;;;;4977882;28;20596;-84
2021/11/25 11:01:44;;;;;;;31.52;21.58;;;;;;;;;;4947062;28;20325;-83
2021/11/25 11:04:11;;;;;;;36.55;20.60;;;;;;;;;;4961919;28;20239;-83
2021/11/25 11:06:39;;;;;;;37.30;21.15;;;;;;;;;;4975414;28;20203;-84
2021/11/25 11:09:06;;;;;;;35.90;21.05;;;;;;;;;;4976192;28;20187;-84
2021/11/25 11:11:35;;;;;;;33.00;20.60;;;;;;;;;;4962573;28;20240;-86
2021/11/25 11:16:46;;;;;;;34.45;19.63;;;;;;;;;;4976814;28;20195;-86
2021/11/25 11:19:13;;;;;;;34.25;19.58;;;;;;;;;;4986459;28;20205;-85
2021/11/25 11:21:43;;;;;;;34.78;19.70;;;;;;;;;;4981654;28;20214;-87
2021/11/25 11:24:17;;;;;;;31.35;18.48;;;;;;;;;;4976785;28;20650;-86
2021/11/25 11:26:51;;;;;;;31.40;19.77;;;;;;;;;;4979517;28;20210;-87
2021/11/25 11:29:18;;;;;;;33.40;19.40;;;;;;;;;;4974959;28;20218;-84
2021/11/25 11:31:45;;;;;;;31.30;19.98;;;;;;;;;;4991391;28;20187;-81
2021/11/25 11:34:12;;;;;;;32.70;21.23;;;;;;;;;;4982063;28;20184;-88
2021/11/25 11:36:39;;;;;;;36.67;20.35;;;;;;;;;;4997173;28;20227;-87
2021/11/25 11:39:05;;;;;;;35.95;21.40;;;;;;;;;;4980430;28;20188;-86
2021/11/25 11:41:32;;;;;;;27.88;18.92;;;;;;;;;;4993618;28;20214;-87
2021/11/25 11:44:01;;;;;;;30.40;19.05;;;;;;;;;;4980363;28;20252;-86
2021/11/25 11:46:27;;;;;;;28.73;17.17;;;;;;;;;;4982077;28;20184;-85
2021/11/25 11:48:53;;;;;;;31.25;17.40;;;;;;;;;;4997556;28;20172;-86
2021/11/25 11:51:21;;;;;;;29.02;17.17;;;;;;;;;;4991789;28;20330;-85
2021/11/25 11:53:51;;;;;;;27.27;19.23;;;;;;;;;;4995501;28;20657;-84
2021/11/25 11:56:18;;;;;;;28.42;19.40;;;;;;;;;;4980085;28;20555;-84
2021/11/25 11:58:55;;;;;;;33.30;19.50;;;;;;;;;;4976461;28;20184;-82
2021/11/25 12:01:23;;;;;;;29.35;18.10;;;;;;;;;;4975859;28;20315;-83
2021/11/25 12:03:49;;;;;;;34.33;20.50;;;;;;;;;;4975000;28;20180;-82
2021/11/25 12:06:35;;;;;;;33.77;20.53;;;;;;;;;;4988795;28;20215;-82
2021/11/25 12:09:02;;;;;;;32.13;20.48;;;;;;;;;;4972680;28;20581;-82
2021/11/25 12:11:42;;;;;;;32.60;21.05;;;;;;;;;;4980167;28;20251;-82
2021/11/25 12:14:09;;;;;;;32.40;20.85;;;;;;;;;;4980870;28;20302;-83
2021/11/25 12:16:36;;;;;;;36.95;20.70;;;;;;;;;;4981360;28;20211;-83
2021/11/25 12:19:04;;;;;;;38.22;21.45;;;;;;;;;;4983554;28;20212;-83
2021/11/25 12:21:33;;;;;;;38.88;22.58;;;;;;;;;;4982201;28;20219;-83
2021/11/25 12:24:17;;;;;;;32.38;18.92;;;;;;;;;;4997758;28;20195;-83
2021/11/25 12:27:03;;;;;;;31.77;19.45;;;;;;;;;;4991919;28;20640;-82
2021/11/25 12:29:37;;;;;;;34.92;21.48;;;;;;;;;;4974404;28;20187;-83
2021/11/25 12:32:26;;;;;;;30.85;18.80;;;;;;;;;;4980261;28;20184;-84
2021/11/25 12:35:11;;;;;;;34.10;19.83;;;;;;;;;;4979715;28;20235;-81
2021/11/25 12:37:47;;;;;;;32.05;19.67;;;;;;;;;;4980393;28;20214;-83
2021/11/25 12:40:22;;;;;;;33.63;19.60;;;;;;;;;;4996272;28;20183;-82
2021/11/25 12:42:50;;;;;;;29.25;20.45;;;;;;;;;;4983900;28;20258;-82
2021/11/25 12:45:22;;;;;;;33.58;20.83;;;;;;;;;;4982107;28;20200;-80
2021/11/25 12:47:48;;;;;;;33.90;20.30;;;;;;;;;;4982395;28;20262;-81
2021/11/25 12:50:18;;;;;;;35.15;20.60;;;;;;;;;;4983169;28;20211;-78
2021/11/25 12:52:44;;;;;;;34.65;20.55;;;;;;;;;;4979406;28;20251;-81
2021/11/25 12:55:11;;;;;;;37.92;18.73;;;;;;;;;;4981284;28;20215;-80
2021/11/25 12:57:53;;;;;;;28.17;18.55;;;;;;;;;;4978752;28;20175;-79
2021/11/25 13:00:20;;;;;;;31.45;20.65;;;;;;;;;;4991991;28;20210;-81
2021/11/25 13:02:46;;;;;;;28.45;19.00;;;;;;;;;;4979157;28;20192;-81
2021/11/25 13:05:13;;;;;;;28.42;18.98;;;;;;;;;;4982987;28;20187;-80
2021/11/25 13:07:46;;;;;;;32.13;18.02;;;;;;;;;;4981970;28;20202;-81
2021/11/25 13:10:21;;;;;;;29.00;17.80;;;;;;;;;;4982069;28;20649;-80
2021/11/25 13:12:47;;;;;;;33.13;19.70;;;;;;;;;;4981316;28;20222;-80
2021/11/25 13:15:15;;;;;;;29.90;19.80;;;;;;;;;;4977562;28;20204;-81
2021/11/25 13:17:54;;;;;;;31.08;19.40;;;;;;;;;;4981289;28;20214;-81
2021/11/25 13:20:39;;;;;;;35.10;20.38;;;;;;;;;;4991675;28;20234;-81
2021/11/25 13:23:06;;;;;;;28.88;19.00;;;;;;;;;;4982956;28;20180;-82
2021/11/25 13:25:32;;;;;;;34.75;20.45;;;;;;;;;;4968700;28;20709;-81
2021/11/25 13:27:58;;;;;;;30.65;19.23;;;;;;;;;;4980622;28;20168;-80
2021/11/25 13:30:24;;;;;;;32.72;21.48;;;;;;;;;;4977005;28;20267;-82
2021/11/25 13:32:52;;;;;;;31.60;19.73;;;;;;;;;;4979679;28;20553;-82
2021/11/25 13:35:19;;;;;;;29.52;19.05;;;;;;;;;;4982112;28;20176;-81
2021/11/25 13:37:51;;;;;;;31.90;19.38;;;;;;;;;;4993351;28;20184;-81
2021/11/25 13:40:18;;;;;;;32.75;18.35;;;;;;;;;;4978632;28;20180;-81
2021/11/25 13:42:46;;;;;;;35.13;20.20;;;;;;;;;;4980018;28;20285;-82
2021/11/25 13:45:22;;;;;;;32.65;19.25;;;;;;;;;;4982341;28;20190;-83
2021/11/25 13:47:49;;;;;;;28.80;19.38;;;;;;;;;;4992930;28;20215;-83
2021/11/25 13:50:17;;;;;;;30.42;20.05;;;;;;;;;;4996827;28;20262;-81
2021/11/25 13:52:50;;;;;;;34.65;21.23;;;;;;;;;;4978432;28;20263;-81
2021/11/25 13:55:20;;;;;;;34.42;19.23;;;;;;;;;;4979074;28;20184;-82
2021/11/25 13:57:47;;;;;;;30.58;20.50;;;;;;;;;;4979137;28;20184;-83
2021/11/25 14:00:33;;;;;;;29.00;20.10;;;;;;;;;;4977142;28;20594;-83
2021/11/25 14:03:06;;;;;;;29.15;18.35;;;;;;;;;;4977056;28;20654;-83
2021/11/25 14:05:41;;;;;;;33.42;18.58;;;;;;;;;;4979899;28;20180;-82
2021/11/25 14:08:07;;;;;;;34.40;21.92;;;;;;;;;;4980138;28;20252;-82
2021/11/25 14:10:34;;;;;;;34.13;18.70;;;;;;;;;;4979188;28;20196;-82
2021/11/25 14:13:03;;;;;;;28.20;16.98;;;;;;;;;;4999195;28;20224;-82
2021/11/25 14:15:30;;;;;;;29.67;18.23;;;;;;;;;;4976178;28;20267;-83
2021/11/25 14:17:57;;;;;;;31.92;19.83;;;;;;;;;;4991719;28;20256;-82
2021/11/25 14:20:25;;;;;;;31.58;21.10;;;;;;;;;;4980951;28;20456;-83
2021/11/25 14:22:51;;;;;;;31.83;20.00;;;;;;;;;;4993124;28;20188;-81
2021/11/25 14:25:25;;;;;;;29.23;18.58;;;;;;;;;;4979116;28;20180;-82
2021/11/25 14:30:36;;;;;;;27.45;19.23;;;;;;;;;;4976484;28;20297;-83
2021/11/25 14:33:05;;;;;;;31.75;18.13;;;;;;;;;;4991636;28;20196;-82
2021/11/25 14:35:38;;;;;;;36.80;21.35;;;;;;;;;;4977876;28;20227;-81
2021/11/25 14:38:06;;;;;;;33.42;18.80;;;;;;;;;;4979994;28;20699;-81
2021/11/25 14:40:33;;;;;;;29.92;18.75;;;;;;;;;;4976322;28;20196;-82